地図

経路データ

SID SEASON NUMBER BASIN SUBBASIN NAME ISO_TIME NATURE LAT LON WMO_WIND WMO_PRES WMO_AGENCY TRACK_TYPE DIST2LAND LANDFALL IFLAG USA_AGENCY USA_ATCF_ID USA_LAT USA_LON USA_RECORD USA_STATUS USA_WIND USA_PRES USA_SSHS USA_R34_NE USA_R34_SE USA_R34_SW USA_R34_NW USA_R50_NE USA_R50_SE USA_R50_SW USA_R50_NW USA_R64_NE USA_R64_SE USA_R64_SW USA_R64_NW USA_POCI USA_ROCI USA_RMW USA_EYE TOKYO_LAT TOKYO_LON TOKYO_GRADE TOKYO_WIND TOKYO_PRES TOKYO_R50_DIR TOKYO_R50_LONG TOKYO_R50_SHORT TOKYO_R30_DIR TOKYO_R30_LONG TOKYO_R30_SHORT TOKYO_LAND CMA_LAT CMA_LON CMA_CAT CMA_WIND CMA_PRES HKO_LAT HKO_LON HKO_CAT HKO_WIND HKO_PRES NEWDELHI_LAT NEWDELHI_LON NEWDELHI_GRADE NEWDELHI_WIND NEWDELHI_PRES NEWDELHI_CI NEWDELHI_DP NEWDELHI_POCI REUNION_LAT REUNION_LON REUNION_TYPE REUNION_WIND REUNION_PRES REUNION_TNUM REUNION_CI REUNION_RMW REUNION_R34_NE REUNION_R34_SE REUNION_R34_SW REUNION_R34_NW REUNION_R50_NE REUNION_R50_SE REUNION_R50_SW REUNION_R50_NW REUNION_R64_NE REUNION_R64_SE REUNION_R64_SW REUNION_R64_NW BOM_LAT BOM_LON BOM_TYPE BOM_WIND BOM_PRES BOM_TNUM BOM_CI BOM_RMW BOM_R34_NE BOM_R34_SE BOM_R34_SW BOM_R34_NW BOM_R50_NE BOM_R50_SE BOM_R50_SW BOM_R50_NW BOM_R64_NE BOM_R64_SE BOM_R64_SW BOM_R64_NW BOM_ROCI BOM_POCI BOM_EYE BOM_POS_METHOD BOM_PRES_METHOD NADI_LAT NADI_LON NADI_CAT NADI_WIND NADI_PRES WELLINGTON_LAT WELLINGTON_LON WELLINGTON_WIND WELLINGTON_PRES DS824_LAT DS824_LON DS824_STAGE DS824_WIND DS824_PRES TD9636_LAT TD9636_LON TD9636_STAGE TD9636_WIND TD9636_PRES TD9635_LAT TD9635_LON TD9635_WIND TD9635_PRES TD9635_ROCI NEUMANN_LAT NEUMANN_LON NEUMANN_CLASS NEUMANN_WIND NEUMANN_PRES MLC_LAT MLC_LON MLC_CLASS MLC_WIND MLC_PRES USA_GUST BOM_GUST BOM_GUST_PER REUNION_GUST REUNION_GUST_PER USA_SEAHGT USA_SEARAD_NE USA_SEARAD_SE USA_SEARAD_SW USA_SEARAD_NW STORM_SPEED STORM_DIR
1861304N25267 1861 32 NA GM NOT_NAMED 1861-10-31 00:00:00 TS 24.5000 -93.5000 main 392 371 _____________O -1 24.5000 -93.5000 TS 35 14 0
1861304N25267 1861 32 NA GM NOT_NAMED 1861-10-31 03:00:00 TS 25.2100 -93.5050 main 371 360 _____________P -1 25.2100 -93.5050 TS 37 13 1
1861304N25267 1861 32 NA GM NOT_NAMED 1861-10-31 06:00:00 TS 25.8000 -93.5000 main 360 354 _____________O -1 25.8000 -93.5000 TS 40 10 3
1861304N25267 1861 32 NA GM NOT_NAMED 1861-10-31 09:00:00 TS 26.1950 -93.4724 main 354 330 _____________P -1 26.1950 -93.4724 TS 42 7 7
1861304N25267 1861 32 NA GM NOT_NAMED 1861-10-31 12:00:00 TS 26.5000 -93.4000 main 330 308 _____________O -1 26.5000 -93.4000 TS 45 7 15
1861304N25267 1861 32 NA GM NOT_NAMED 1861-10-31 15:00:00 TS 26.8425 -93.2724 main 308 268 _____________P -1 26.8425 -93.2724 TS 50 8 21
1861304N25267 1861 32 NA GM NOT_NAMED 1861-10-31 18:00:00 TS 27.2000 -93.1000 main 268 233 _____________O -1 27.2000 -93.1000 TS 55 8 18
1861304N25267 1861 32 NA GM NOT_NAMED 1861-10-31 21:00:00 TS 27.5616 -93.0033 main 222 171 _____________P -1 27.5616 -93.0033 TS 57 9 24
1861304N25267 1861 32 NA GM NOT_NAMED 1861-11-01 00:00:00 TS 28.0000 -92.7000 main 171 104 _____________O -1 28.0000 -92.7000 TS 60 992 14 40
1861304N25267 1861 32 NA GM NOT_NAMED 1861-11-01 03:00:00 TS 28.6073 -91.9938 main 104 0 _____________P -1 28.6073 -91.9938 TS 60 19 51
1861304N25267 1861 32 NA GM NOT_NAMED 1861-11-01 06:00:00 TS 29.2000 -91.0000 main 0 0 _____________O -1 29.2000 -91.0000 TS 60 21 62
1861304N25267 1861 32 NA NA NOT_NAMED 1861-11-01 09:00:00 TS 29.5792 -89.9229 main 0 0 _____________P -1 29.5792 -89.9229 TS 55 21 71
1861304N25267 1861 32 NA GM NOT_NAMED 1861-11-01 12:00:00 TS 29.9000 -88.7000 main 44 11 _____________O -1 29.9000 -88.7000 TS 50 23 72
1861304N25267 1861 32 NA GM NOT_NAMED 1861-11-01 15:00:00 TS 30.2688 -87.4006 main 0 0 _____________P -1 30.2688 -87.4006 TS 55 25 71
1861304N25267 1861 32 NA NA NOT_NAMED 1861-11-01 18:00:00 TS 30.7000 -86.0000 main 0 0 _____________O -1 30.7000 -86.0000 TS 60 27 70
1861304N25267 1861 32 NA NA NOT_NAMED 1861-11-01 21:00:00 TS 31.1978 -84.4840 main 0 0 _____________P -1 31.1978 -84.4840 TS 60 28 67
1861304N25267 1861 32 NA NA NOT_NAMED 1861-11-02 00:00:00 ET 31.8000 -83.0000 main 0 0 _____________O -1 31.8000 -83.0000 EX 60 27 62
1861304N25267 1861 32 NA NA NOT_NAMED 1861-11-02 03:00:00 ET 32.4670 -81.6364 main 0 0 _____________P -1 32.4670 -81.6364 EX 60 26 55
1861304N25267 1861 32 NA NA NOT_NAMED 1861-11-02 06:00:00 ET 33.3000 -80.5000 main 0 0 _____________O -1 33.3000 -80.5000 EX 60 25 41
1861304N25267 1861 32 NA NA NOT_NAMED 1861-11-02 09:00:00 ET 34.3982 -79.6519 main 0 0 _____________P -1 34.3982 -79.6519 EX 60 25 29
1861304N25267 1861 32 NA NA NOT_NAMED 1861-11-02 12:00:00 ET 35.5000 -79.0000 main 0 0 _____________O -1 35.5000 -79.0000 EX 60 21 30
1861304N25267 1861 32 NA NA NOT_NAMED 1861-11-02 15:00:00 ET 36.2120 -78.3579 main 0 0 _____________P -1 36.2120 -78.3579 EX 60 18 33
1861304N25267 1861 32 NA NA NOT_NAMED 1861-11-02 18:00:00 ET 37.0000 -77.8000 main 0 0 _____________O -1 37.0000 -77.8000 EX 60 23 23
1861304N25267 1861 32 NA NA NOT_NAMED 1861-11-02 21:00:00 ET 38.3275 -77.2500 main 0 0 _____________P -1 38.3275 -77.2500 EX 60 28 16
1861304N25267 1861 32 NA NA NOT_NAMED 1861-11-03 00:00:00 ET 39.7000 -76.8000 main 0 0 _____________O -1 39.7000 -76.8000 EX 60 24 14
1861304N25267 1861 32 NA NA NOT_NAMED 1861-11-03 03:00:00 ET 40.6895 -76.4949 main 0 0 _____________P -1 40.6895 -76.4949 EX 60 18 12
1861304N25267 1861 32 NA NA NOT_NAMED 1861-11-03 06:00:00 ET 41.5000 -76.3000 main 0 0 _____________O -1 41.5000 -76.3000 EX 60 16 10
1861304N25267 1861 32 NA NA NOT_NAMED 1861-11-03 09:00:00 ET 42.2349 -76.1193 main 0 0 _____________P -1 42.2349 -76.1193 EX 55 15 8
1861304N25267 1861 32 NA NA NOT_NAMED 1861-11-03 12:00:00 ET 43.0000 -76.0000 main 0 0 _____________O -1 43.0000 -76.0000 EX 50 17 5
1861304N25267 1861 32 NA NA NOT_NAMED 1861-11-03 15:00:00 ET 43.9425 -75.9353 main 0 0 _____________P -1 43.9425 -75.9353 EX 50 20 2
1861304N25267 1861 32 NA NA NOT_NAMED 1861-11-03 18:00:00 ET 45.0000 -75.9000 main 0 _____________O -1 45.0000 -75.9000 EX 50 21 0

IBTrACS Databaseについて

本データベースは、米国NOAAが公開する1842年以降の世界の熱帯低気圧のベストトラックデータアーカイブInternational Best Track Archive for Climate Stewardship (IBTrACS)を、ウェブで閲覧しやすい形式に変換したものです。

最終更新日:2021-10-25